Race Results for…
Race Against Hunger

November 28, 2019 Results presented by Visalia Emergency Aid Council and timed by Central Valley Timing
Participants:
4384
Last Updated:
12/6/2019 8:49:48 PM
Stats

Leaderboards

Jump to a Leaderboard

5K

Male - Overall
Bib Name Chip Elapsed Pace City Age
1 226 JACOB BILVADO 00:15:09 04:53 min/mile 23
2 1786 EVAN LOFTIN 00:15:42 05:03 min/mile 18
3 1287 DOMINIC KROHN 00:15:47 05:05 min/mile TULARE 27
Female - Overall
Bib Name Chip Elapsed Pace City Age
1 1223 CIERRA MECHAM 00:16:50 05:25 min/mile LOGAN 24
2 1428 ELYSE GARZA 00:18:41 06:01 min/mile THREE RIVERS 32
3 2506 CADENCE ESTERMANN 00:18:51 06:04 min/mile 15

Overall Results

Tip: Swipe the results table to view more.
2528 entrants …
5K Results
Bib Name Chip Elapsed Age Division Gender City Gender Place Div Place Age Place Pace
226 JACOB BILVADO 00:15:09 23 5K M 1 1 1 04:53 min/mile
1786 EVAN LOFTIN 00:15:42 18 5K M 2 2 1 05:03 min/mile
1287 DOMINIC KROHN 00:15:47 27 5K M TULARE 3 3 1 05:05 min/mile
530 GARRIN SCHAAP 00:16:02 19 5K M VISALIA 4 4 2 05:10 min/mile
1598 JASON DUDLEY 00:16:14 40 5K M HANFORD 5 5 1 05:14 min/mile
1424 ERIC RAGAN 00:16:17 17 5K M VISALIA 6 6 3 05:15 min/mile
2676 JOSHUA ESCOBEDO 00:16:33 34 5K M 7 7 1 05:20 min/mile
1137 RILEY SIMMONS 00:16:43 21 5K M SODA SPRINGS 8 8 2 05:23 min/mile
2574 JUSTIN HARRIS 00:16:46 43 5K M 9 9 2 05:24 min/mile
1223 CIERRA MECHAM 00:16:50 24 5K F LOGAN 1 10 1 05:25 min/mile
1289 LUIS RUIZ 00:16:56 39 5K M VISALIA 10 11 1 05:27 min/mile
1531 SAM ALEMAN 00:16:57 23 5K M EXETER 11 12 3 05:28 min/mile
2540 JUAN ZAMARRIPA-ROMO 00:17:04 17 5K M 12 13 4 05:30 min/mile
1165 LUKE CRAWFORD 00:17:10 15 5K M VISALIA 13 14 1 05:32 min/mile
1457 JACOB GARCIA 00:17:12 18 5K M FARMERSVILLE 14 15 5 05:32 min/mile
1335 LIONEL INHPHOM 00:17:19 17 5K M VISALIA 15 16 6 05:35 min/mile
2543 LINO FLORES 00:17:26 32 5K M 16 17 2 05:37 min/mile
1392 ANDREW YBARRA 00:17:30 19 5K M VISALIA 17 18 7 05:38 min/mile
373 SETH LAGERHAUSEN 00:17:31 35 5K M 18 19 2 05:39 min/mile
684 JACOB ROMERO 00:17:40 15 5K M VISALIA 19 20 2 05:41 min/mile
1298 CODY ELLIS 00:17:40 16 5K M ARROYO GRANDE 20 21 8 05:41 min/mile
2343 JAMIE RODRIGUEZ 00:17:46 8 5K M 21 22 3 05:43 min/mile
690 JUSTIN RAYMOND 00:17:48 18 5K M VISALIA 22 23 9 05:44 min/mile
2295 unknown unknown 00:17:50 0 5K M 0 24 0 05:45 min/mile
1376 ARMANDO GUZMAN 00:17:58 27 5K M TULARE 23 25 2 05:47 min/mile
1443 RICHARD TORREZ 00:17:59 20 5K M TULARE 24 26 4 05:48 min/mile
1951 unknown unknown 00:18:02 0 5K M 0 27 0 05:49 min/mile
741 JORDAN GRANT 00:18:04 30 5K M REEDLEY 25 28 3 05:49 min/mile
910 SERGIO GONZALEZ 00:18:06 15 5K M VISALIA 26 29 4 05:50 min/mile
1459 MAXIMO ROLDAN 00:18:07 57 5K M EXETER 27 30 1 05:50 min/mile
2898 RYAN HEMPHILL 00:18:17 17 5K M 28 31 10 05:53 min/mile
749 ANTONIO FIGUEROA 00:18:20 15 5K M VISALIA 29 32 5 05:54 min/mile
2385 DAVID GUERRERO 00:18:25 25 5K M 30 33 3 05:56 min/mile
1577 KOBY RAMAGE 00:18:28 19 5K M VISALIA 31 34 11 05:57 min/mile
63 MARC SCHOMMER 00:18:30 33 5K M 32 35 4 05:58 min/mile
1300 GERARDO DICOCHEA 00:18:30 18 5K M VISALIA 33 36 12 05:58 min/mile
1297 CORY ELLIS 00:18:31 20 5K M ARROYO GRANDE 34 37 5 05:58 min/mile
360 CHRIS PALMER 00:18:35 36 5K M 35 38 3 05:59 min/mile
1825 LEVI WAGNER 00:18:36 14 5K M 36 39 6 06:00 min/mile
1599 TRENT WHITFIELD 00:18:37 16 5K M TULARE 37 40 13 06:00 min/mile
1428 ELYSE GARZA 00:18:41 32 5K F THREE RIVERS 2 41 1 06:01 min/mile
2888 RENE RODRIGUEZ 00:18:42 43 5K M 38 42 3 06:01 min/mile
1847 JESUS BERMUDEZ 00:18:42 25 5K M 39 43 4 06:01 min/mile
924 JOE JUAREZ 00:18:43 41 5K M VISALIA 40 44 4 06:02 min/mile
1000 JARED LEAKE 00:18:46 40 5K M SANTA CRUZ 41 45 5 06:03 min/mile
60 MICHAEL SCHOMMER 00:18:49 35 5K M 42 46 4 06:04 min/mile
2506 CADENCE ESTERMANN 00:18:51 15 5K F 3 47 1 06:04 min/mile
2972 DIEGO PEREZ 00:18:51 17 5K M 43 48 14 06:04 min/mile
2669 FRANCO BERMUDEZ 00:18:53 17 5K M 44 49 15 06:05 min/mile
2721 GABRIEL CHAVEZ 00:18:59 38 5K M 45 50 5 06:07 min/mile
2528 entrants …

Winners

Tip: Slide the results table left and right to view more.
Overall
Bib Name Chip Elapsed Age Division Gender City Gender Place Div Place Age Place Pace
226 JACOB BILVADO 00:15:09 23 5K M 1 1 1 04:53 min/mile
1786 EVAN LOFTIN 00:15:42 18 5K M 2 2 1 05:03 min/mile
1287 DOMINIC KROHN 00:15:47 27 5K M TULARE 3 3 1 05:05 min/mile
1223 CIERRA MECHAM 00:16:50 24 5K F LOGAN 1 10 1 05:25 min/mile
1428 ELYSE GARZA 00:18:41 32 5K F THREE RIVERS 2 41 1 06:01 min/mile
2506 CADENCE ESTERMANN 00:18:51 15 5K F 3 47 1 06:04 min/mile
1 - 15
Bib Name Chip Elapsed Age Division Gender City Gender Place Div Place Age Place Pace
1165 LUKE CRAWFORD 00:17:10 15 5K M VISALIA 13 14 1 05:32 min/mile
684 JACOB ROMERO 00:17:40 15 5K M VISALIA 19 20 2 05:41 min/mile
2343 JAMIE RODRIGUEZ 00:17:46 8 5K M 21 22 3 05:43 min/mile
910 SERGIO GONZALEZ 00:18:06 15 5K M VISALIA 26 29 4 05:50 min/mile
749 ANTONIO FIGUEROA 00:18:20 15 5K M VISALIA 29 32 5 05:54 min/mile
2506 CADENCE ESTERMANN 00:18:51 15 5K F 3 47 1 06:04 min/mile
1139 BRYNLEE SIMMONS 00:19:03 15 5K F SODA SPRINGS 4 52 2 06:08 min/mile
2507 NORAH KOSTELYK 00:21:08 12 5K F 12 110 3 06:49 min/mile
1140 MACEE SIMMONS 00:21:51 13 5K F SODA SPRINGS 22 158 4 07:02 min/mile
993 ANNA DOOLEY 00:22:23 14 5K F VISALIA 27 179 5 07:13 min/mile
16 - 19
Bib Name Chip Elapsed Age Division Gender City Gender Place Div Place Age Place Pace
1786 EVAN LOFTIN 00:15:42 18 5K M 2 2 1 05:03 min/mile
530 GARRIN SCHAAP 00:16:02 19 5K M VISALIA 4 4 2 05:10 min/mile
1424 ERIC RAGAN 00:16:17 17 5K M VISALIA 6 6 3 05:15 min/mile
2540 JUAN ZAMARRIPA-ROMO 00:17:04 17 5K M 12 13 4 05:30 min/mile
1457 JACOB GARCIA 00:17:12 18 5K M FARMERSVILLE 14 15 5 05:32 min/mile
1653 SAMANTHA WILCOX 00:21:49 16 5K F POCATELLO 21 155 1 07:02 min/mile
1018 JOSIE RIOS 00:23:04 19 5K F PORTERVILLE 35 216 2 07:26 min/mile
20 AMBER DANCIL 00:23:23 16 5K F 43 241 3 07:32 min/mile
1864 ELLIS HANNAH 00:23:35 18 5K F 48 253 4 07:36 min/mile
1062 NADIA SALCEDO 00:23:58 18 5K F TULARE 56 274 5 07:43 min/mile
20 - 24
Bib Name Chip Elapsed Age Division Gender City Gender Place Div Place Age Place Pace
226 JACOB BILVADO 00:15:09 23 5K M 1 1 1 04:53 min/mile
1137 RILEY SIMMONS 00:16:43 21 5K M SODA SPRINGS 8 8 2 05:23 min/mile
1531 SAM ALEMAN 00:16:57 23 5K M EXETER 11 12 3 05:28 min/mile
1443 RICHARD TORREZ 00:17:59 20 5K M TULARE 24 26 4 05:48 min/mile
1297 CORY ELLIS 00:18:31 20 5K M ARROYO GRANDE 34 37 5 05:58 min/mile
1223 CIERRA MECHAM 00:16:50 24 5K F LOGAN 1 10 1 05:25 min/mile
2386 BRIANNA GUERRERO 00:20:08 21 5K F 6 77 2 06:29 min/mile
711 KARINA CARSTENS 00:20:18 22 5K F EXETER 7 81 3 06:32 min/mile
431 KALEN ABE 00:22:55 21 5K F 32 208 4 07:23 min/mile
2314 COURTNEY PACHECO 00:23:32 24 5K F 46 249 5 07:35 min/mile
25 - 29
Bib Name Chip Elapsed Age Division Gender City Gender Place Div Place Age Place Pace
1287 DOMINIC KROHN 00:15:47 27 5K M TULARE 3 3 1 05:05 min/mile
1376 ARMANDO GUZMAN 00:17:58 27 5K M TULARE 23 25 2 05:47 min/mile
2385 DAVID GUERRERO 00:18:25 25 5K M 30 33 3 05:56 min/mile
1847 JESUS BERMUDEZ 00:18:42 25 5K M 39 43 4 06:01 min/mile
2765 CHRISTOPHER RAMIREZ 00:19:26 27 5K M 52 59 5 06:16 min/mile
592 ALLY KORNELIS 00:20:19 29 5K F VISALIA 8 82 1 06:33 min/mile
979 KAYLYN SHAW 00:20:58 27 5K F DENHAM SPRINGS 11 103 2 06:45 min/mile
2661 HEIDI PROCTOR 00:21:09 28 5K F 13 111 3 06:49 min/mile
425 AMY PERERRA 00:21:19 27 5K F 15 122 4 06:52 min/mile
1024 MICHELLE BLAIN 00:21:24 28 5K F VISALIA 18 132 5 06:54 min/mile
30 - 34
Bib Name Chip Elapsed Age Division Gender City Gender Place Div Place Age Place Pace
2676 JOSHUA ESCOBEDO 00:16:33 34 5K M 7 7 1 05:20 min/mile
2543 LINO FLORES 00:17:26 32 5K M 16 17 2 05:37 min/mile
741 JORDAN GRANT 00:18:04 30 5K M REEDLEY 25 28 3 05:49 min/mile
63 MARC SCHOMMER 00:18:30 33 5K M 32 35 4 05:58 min/mile
1427 LUKE RAYFIELD 00:19:01 34 5K M SLOUGHHOUSE 46 51 5 06:08 min/mile
1428 ELYSE GARZA 00:18:41 32 5K F THREE RIVERS 2 41 1 06:01 min/mile
2428 ALICE MCELYEA 00:19:49 31 5K F 5 67 2 06:23 min/mile
1902 RENEE DENOLF 00:21:19 31 5K F 16 123 3 06:52 min/mile
603 DENISE LANGLEY 00:21:21 34 5K F VISALIA 17 127 4 06:53 min/mile
1718 KATIE VERHOEVEN 00:22:15 30 5K F 26 175 5 07:10 min/mile
35 - 39
Bib Name Chip Elapsed Age Division Gender City Gender Place Div Place Age Place Pace
1289 LUIS RUIZ 00:16:56 39 5K M VISALIA 10 11 1 05:27 min/mile
373 SETH LAGERHAUSEN 00:17:31 35 5K M 18 19 2 05:39 min/mile
360 CHRIS PALMER 00:18:35 36 5K M 35 38 3 05:59 min/mile
60 MICHAEL SCHOMMER 00:18:49 35 5K M 42 46 4 06:04 min/mile
2721 GABRIEL CHAVEZ 00:18:59 38 5K M 45 50 5 06:07 min/mile
1826 KRISTEN MARTIN DEL CAMPO 00:21:16 37 5K F 14 115 1 06:51 min/mile
951 NICOLE SWANSON 00:21:44 36 5K F EXETER 20 154 2 07:00 min/mile
361 ASHLEY PALMER 00:22:02 36 5K F 24 166 3 07:06 min/mile
2949 RACHEL DUBY 00:22:54 35 5K F 31 206 4 07:23 min/mile
964 KATRINA PICON 00:23:03 36 5K F STUDIO CITY 34 214 5 07:26 min/mile
40 - 44
Bib Name Chip Elapsed Age Division Gender City Gender Place Div Place Age Place Pace
1598 JASON DUDLEY 00:16:14 40 5K M HANFORD 5 5 1 05:14 min/mile
2574 JUSTIN HARRIS 00:16:46 43 5K M 9 9 2 05:24 min/mile
2888 RENE RODRIGUEZ 00:18:42 43 5K M 38 42 3 06:01 min/mile
924 JOE JUAREZ 00:18:43 41 5K M VISALIA 40 44 4 06:02 min/mile
1000 JARED LEAKE 00:18:46 40 5K M SANTA CRUZ 41 45 5 06:03 min/mile
1630 ALISON LIBOLT 00:20:35 40 5K F VISALIA 9 90 1 06:38 min/mile
368 ERICKA REQUEJO ESCAMILLIA 00:20:51 43 5K F 10 100 2 06:43 min/mile
1636 KIM HARKER 00:21:44 40 5K F MERIDIAN 19 152 3 07:00 min/mile
729 JONAH BELLE BURNS 00:24:02 44 5K F PORTERVILLE 58 281 4 07:45 min/mile
1409 ALICIA CASTRO 00:24:15 44 5K F PORTERVILLE 64 305 5 07:49 min/mile
45 - 49
Bib Name Chip Elapsed Age Division Gender City Gender Place Div Place Age Place Pace
1821 BRIAN HILDRETH 00:20:24 49 5K M 72 83 1 06:34 min/mile
1510 RANDY VANDER TUIG 00:20:32 45 5K M TULARE 77 88 2 06:37 min/mile
788 SCOTT ROBINSON 00:20:39 45 5K M TULARE 82 94 3 06:39 min/mile
1824 SAUL RODRIGUEZ 00:21:05 48 5K M 93 107 4 06:48 min/mile
1278 JOHN PEREZ 00:21:31 48 5K M VISALIA 116 137 5 06:56 min/mile
978 ROBYN BATCHMAN 00:24:08 49 5K F VISALIA 63 293 1 07:47 min/mile
1136 KRISTEN SIMMONS 00:26:09 48 5K F SODA SPRINGS 114 447 2 08:26 min/mile
1760 MANSIT BATTH 00:26:17 46 5K F 117 457 3 08:28 min/mile
1171 SHERRY TERRIBLE 00:26:20 48 5K F VISALIA 120 462 4 08:29 min/mile
1369 NATALIE NUCKOLS 00:26:22 49 5K F VISALIA 124 467 5 08:30 min/mile
50 - 54
Bib Name Chip Elapsed Age Division Gender City Gender Place Div Place Age Place Pace
489 SCOTT WEISENBORN 00:20:44 52 5K M 83 95 1 06:41 min/mile
1433 KENNY HYATT 00:21:34 53 5K M VISALIA 120 141 2 06:57 min/mile
1506 JESUS VILLAGRANA 00:22:06 51 5K M KINGSBURG 143 170 3 07:07 min/mile
597 HECTOR SAHAGUN 00:23:59 50 5K M WOODLAKE 216 275 4 07:44 min/mile
1494 RICHARD WARNER 00:24:45 50 5K M PETALUMA 267 348 5 07:59 min/mile
1398 DEBBIE VERDUZCO 00:26:58 54 5K F VISALIA 145 523 1 08:41 min/mile
2865 YOLANDA HUGHES 00:27:25 51 5K F 165 569 2 08:50 min/mile
641 KARIN AURE 00:27:50 50 5K F EXETER 180 604 3 08:58 min/mile
833 MARIA RUSCH 00:27:52 53 5K F SPRINGVILLE 183 612 4 08:59 min/mile
925 YVONNE GONZALES 00:28:08 52 5K F VISALIA 201 639 5 09:04 min/mile
55 - 59
Bib Name Chip Elapsed Age Division Gender City Gender Place Div Place Age Place Pace
1459 MAXIMO ROLDAN 00:18:07 57 5K M EXETER 27 30 1 05:50 min/mile
647 ANDREW STEWART 00:19:10 59 5K M BURY ST EDMUNDS 48 54 2 06:10 min/mile
201 MIKE BRAGG 00:20:36 55 5K M 79 91 3 06:38 min/mile
2935 ALBERT CHAVES 00:21:18 58 5K M 104 121 4 06:52 min/mile
1456 BONFILIO GONZALEZ 00:22:45 57 5K M MADERA 162 195 5 07:20 min/mile
646 CHRISTINE ANTHONY 00:22:08 56 5K F BURY ST EDMUNDS 25 172 1 07:08 min/mile
574 VIRGINIA JORGENSEN 00:22:33 57 5K F TULARE 30 191 2 07:16 min/mile
728 RENEE SAXMAN 00:24:21 59 5K F VISALIA 68 314 3 07:51 min/mile
2720 TERESA SEGURA 00:25:43 57 5K F 98 407 4 08:17 min/mile
2673 SYLVIA NAJERA 00:25:57 56 5K F 106 427 5 08:22 min/mile
60 - 64
Bib Name Chip Elapsed Age Division Gender City Gender Place Div Place Age Place Pace
1697 ALLAN LOMBARDI 00:21:50 62 5K M 132 156 1 07:02 min/mile
1373 DAVID HUMERICKHOUSE 00:22:08 63 5K M VISALIA 144 171 2 07:08 min/mile
2705 ANDY MACIAS 00:22:43 64 5K M 161 194 3 07:19 min/mile
1080 LAWRENCE KOPPL 00:23:43 63 5K M KATONAH 208 262 4 07:39 min/mile
1860 DAVID TEVELDE 00:23:45 60 5K M 210 266 5 07:39 min/mile
1013 LINDA FROST 00:25:36 60 5K F VISALIA 92 394 1 08:15 min/mile
1610 KATHLEEN GRAJEDA 00:27:09 61 5K F SANTA MONICA 155 543 2 08:45 min/mile
1858 ALICE TEVELDE 00:29:43 64 5K F 271 779 3 09:35 min/mile
2768 PEGGY STEVENS 00:37:27 63 5K F 593 1331 4 12:04 min/mile
1611 BRENDA EVANS 00:41:04 64 5K F VISALIA 688 1483 5 13:14 min/mile
65 - 69
Bib Name Chip Elapsed Age Division Gender City Gender Place Div Place Age Place Pace
1645 CRAIG WHEATON 00:22:06 67 5K M VISALIA 142 169 1 07:07 min/mile
443 BRUCE NICOTERO 00:25:16 68 5K M 288 375 2 08:09 min/mile
990 PABLO MARTINEZ 00:25:25 66 5K M VISALIA 291 382 3 08:11 min/mile
705 TONY LEON 00:25:34 66 5K M SYLMAR 299 393 4 08:14 min/mile
529 MICHAEL ALEXEEV 00:26:44 66 5K M BLOOMINGTON 362 503 5 08:37 min/mile
1403 JOAN AVEDIAN 00:24:18 66 5K F VISALIA 65 310 1 07:50 min/mile
787 JANET LYNCH 00:27:55 67 5K F VISALIA 188 619 2 09:00 min/mile
1220 DOROTHY COLLINS 00:28:26 65 5K F VISALIA 217 665 3 09:10 min/mile
1762 CYNTHIA PRICE 00:30:27 69 5K F 301 838 4 09:49 min/mile
1850 RHONDA MCCONNAUGHEY 00:32:14 67 5K F 394 1013 5 10:23 min/mile
70 - 98
Bib Name Chip Elapsed Age Division Gender City Gender Place Div Place Age Place Pace
686 BOBBY POWELL 00:24:10 73 5K M PORTERVILLE 232 298 1 07:47 min/mile
2862 DAVID HERNANDEZ 00:27:26 71 5K M 403 571 2 08:50 min/mile
2842 JOSEPH RINGHOFER 00:28:09 72 5K M 436 641 3 09:04 min/mile
316 BOB SCHARFFENBERG 00:28:44 70 5K M 458 697 4 09:16 min/mile
292 WAYNE BURKS 00:29:28 73 5K M 490 754 5 09:30 min/mile
69 VERA KAY GRIMMIUS/DELEEUW 00:39:38 73 5K F 646 1422 1 12:47 min/mile
80 ANNE SKINNER 00:41:45 71 5K F 701 1505 2 13:28 min/mile
685 JUANITA POWELL 00:44:04 78 5K F PORTERVILLE 752 1578 3 14:12 min/mile
99 - 99
Bib Name Chip Elapsed Age Division Gender City Gender Place Div Place Age Place Pace

Race Info

Participants:
4384
Last Updated:
12/6/2019 8:49:48 PM

Tip: Swipe the results table to view more.

Search for Name, Bib, City, State or Team
in the field above… by clicking the icon below…

Notes & Race Statistics

CHILD 2 MILE WALK (12 & UNDER) - 0


Male
Total Finishers Avg Pace
0 00:00

Female
Total Finishers Avg Pace
0 00:00

ADULT 2 MILE WALK - 3


Male
Total Finishers Avg Pace
0 00:00

Female
Total Finishers Avg Pace
3 00:00

5K - 1816


Male
Total Finishers Avg Pace
923 10:50

Female
Total Finishers Avg Pace
893 11:21

Have a question or need to make a correction?

Submit a Result Correction